sensor_id;sensor_type;location;lat;lon;timestamp;pressure;altitude;pressure_sealevel;temperature;humidity
50268;BME280;36153;50.960;6.220;2023-01-29T00:00:45;102038.22;;;1.29;60.02
50268;BME280;36153;50.960;6.220;2023-01-29T00:03:50;102028.19;;;1.32;59.99
50268;BME280;36153;50.960;6.220;2023-01-29T00:06:52;102028.53;;;1.36;60.13
50268;BME280;36153;50.960;6.220;2023-01-29T00:09:53;102024.41;;;1.39;60.05
50268;BME280;36153;50.960;6.220;2023-01-29T00:12:55;102020.84;;;1.36;59.84
50268;BME280;36153;50.960;6.220;2023-01-29T00:15:57;102027.75;;;1.38;59.73
50268;BME280;36153;50.960;6.220;2023-01-29T00:19:02;102027.28;;;1.43;59.93
50268;BME280;36153;50.960;6.220;2023-01-29T00:22:04;102019.84;;;1.46;59.59
50268;BME280;36153;50.960;6.220;2023-01-29T00:25:06;102022.63;;;1.49;59.65
50268;BME280;36153;50.960;6.220;2023-01-29T00:28:09;102011.25;;;1.34;60.00
50268;BME280;36153;50.960;6.220;2023-01-29T00:31:12;102011.13;;;1.32;60.23
50268;BME280;36153;50.960;6.220;2023-01-29T00:34:14;102009.88;;;1.39;60.03
50268;BME280;36153;50.960;6.220;2023-01-29T00:37:15;102003.00;;;1.38;59.93
50268;BME280;36153;50.960;6.220;2023-01-29T00:40:16;102002.31;;;1.29;59.85
50268;BME280;36153;50.960;6.220;2023-01-29T00:43:16;101999.09;;;1.31;60.06
50268;BME280;36153;50.960;6.220;2023-01-29T00:46:35;101996.06;;;1.37;60.15
50268;BME280;36153;50.960;6.220;2023-01-29T00:49:36;101992.06;;;1.29;59.89
50268;BME280;36153;50.960;6.220;2023-01-29T00:52:36;101999.19;;;1.33;59.74
50268;BME280;36153;50.960;6.220;2023-01-29T00:55:37;101999.50;;;1.38;59.54
50268;BME280;36153;50.960;6.220;2023-01-29T00:58:37;101980.09;;;1.29;59.63
50268;BME280;36153;50.960;6.220;2023-01-29T01:01:38;101986.50;;;1.23;59.85
50268;BME280;36153;50.960;6.220;2023-01-29T01:04:57;101981.66;;;1.39;59.64
50268;BME280;36153;50.960;6.220;2023-01-29T01:07:57;101978.88;;;1.36;59.74
50268;BME280;36153;50.960;6.220;2023-01-29T01:11:00;101990.38;;;1.29;59.68
50268;BME280;36153;50.960;6.220;2023-01-29T01:14:00;101989.59;;;1.30;59.92
50268;BME280;36153;50.960;6.220;2023-01-29T01:17:01;102002.09;;;1.26;59.99
50268;BME280;36153;50.960;6.220;2023-01-29T01:20:02;102003.41;;;1.21;59.90
50268;BME280;36153;50.960;6.220;2023-01-29T01:23:02;101997.50;;;1.33;59.99
50268;BME280;36153;50.960;6.220;2023-01-29T01:26:08;102006.31;;;1.25;59.81
50268;BME280;36153;50.960;6.220;2023-01-29T01:29:08;102003.44;;;1.32;59.79
50268;BME280;36153;50.960;6.220;2023-01-29T01:32:08;101998.22;;;1.31;59.74
50268;BME280;36153;50.960;6.220;2023-01-29T01:35:10;101994.06;;;1.33;59.53
50268;BME280;36153;50.960;6.220;2023-01-29T01:38:11;101991.84;;;1.26;59.53
50268;BME280;36153;50.960;6.220;2023-01-29T01:41:17;101984.34;;;1.29;59.84
50268;BME280;36153;50.960;6.220;2023-01-29T01:48:14;101972.63;;;1.21;59.68
50268;BME280;36153;50.960;6.220;2023-01-29T01:51:17;101962.38;;;1.21;59.89
50268;BME280;36153;50.960;6.220;2023-01-29T01:54:24;101963.03;;;1.18;59.85
50268;BME280;36153;50.960;6.220;2023-01-29T01:57:27;101969.16;;;1.08;59.40
50268;BME280;36153;50.960;6.220;2023-01-29T02:00:28;101973.97;;;1.15;59.86
50268;BME280;36153;50.960;6.220;2023-01-29T02:03:30;101970.97;;;1.09;59.88
50268;BME280;36153;50.960;6.220;2023-01-29T02:06:51;101973.84;;;1.14;59.57
50268;BME280;36153;50.960;6.220;2023-01-29T02:10:15;101976.31;;;1.12;59.76
50268;BME280;36153;50.960;6.220;2023-01-29T02:13:15;101974.66;;;1.13;59.82
50268;BME280;36153;50.960;6.220;2023-01-29T02:16:20;101969.50;;;1.01;59.68
50268;BME280;36153;50.960;6.220;2023-01-29T02:19:44;101978.22;;;1.03;60.00
50268;BME280;36153;50.960;6.220;2023-01-29T02:23:28;101966.50;;;0.95;59.79
50268;BME280;36153;50.960;6.220;2023-01-29T02:26:44;101966.84;;;0.99;59.63
50268;BME280;36153;50.960;6.220;2023-01-29T02:29:54;101977.78;;;1.09;59.72
50268;BME280;36153;50.960;6.220;2023-01-29T02:33:12;101969.94;;;1.07;59.83
50268;BME280;36153;50.960;6.220;2023-01-29T02:39:52;101983.09;;;1.00;60.09
50268;BME280;36153;50.960;6.220;2023-01-29T02:43:09;101994.81;;;1.08;60.06
50268;BME280;36153;50.960;6.220;2023-01-29T02:46:38;102001.75;;;1.09;59.76
50268;BME280;36153;50.960;6.220;2023-01-29T02:49:55;102018.13;;;1.11;60.16
50268;BME280;36153;50.960;6.220;2023-01-29T02:53:13;102009.88;;;1.15;59.63
50268;BME280;36153;50.960;6.220;2023-01-29T02:56:23;102019.16;;;1.13;59.36
50268;BME280;36153;50.960;6.220;2023-01-29T02:59:43;102025.81;;;1.11;59.82
50268;BME280;36153;50.960;6.220;2023-01-29T03:06:38;102015.91;;;1.28;59.78
50268;BME280;36153;50.960;6.220;2023-01-29T03:09:47;102007.88;;;1.11;59.82
50268;BME280;36153;50.960;6.220;2023-01-29T03:12:55;102001.19;;;1.13;59.74
50268;BME280;36153;50.960;6.220;2023-01-29T03:16:06;101999.19;;;1.09;59.87
50268;BME280;36153;50.960;6.220;2023-01-29T03:19:19;101997.50;;;0.98;59.75
50268;BME280;36153;50.960;6.220;2023-01-29T03:22:23;101996.47;;;0.96;59.58
50268;BME280;36153;50.960;6.220;2023-01-29T03:25:26;101992.75;;;0.80;59.03
50268;BME280;36153;50.960;6.220;2023-01-29T03:28:46;101984.63;;;0.86;60.17
50268;BME280;36153;50.960;6.220;2023-01-29T03:32:06;101986.56;;;1.00;60.01
50268;BME280;36153;50.960;6.220;2023-01-29T03:35:09;101996.06;;;1.13;60.22
50268;BME280;36153;50.960;6.220;2023-01-29T03:38:12;101994.94;;;1.10;59.76
50268;BME280;36153;50.960;6.220;2023-01-29T03:41:24;101996.06;;;1.13;59.81
50268;BME280;36153;50.960;6.220;2023-01-29T03:44:35;102007.00;;;1.23;59.88
50268;BME280;36153;50.960;6.220;2023-01-29T03:47:47;102003.34;;;1.31;60.05
50268;BME280;36153;50.960;6.220;2023-01-29T03:54:38;102002.53;;;1.44;59.71
50268;BME280;36153;50.960;6.220;2023-01-29T03:58:29;102007.69;;;1.44;59.40
50268;BME280;36153;50.960;6.220;2023-01-29T04:02:04;102003.88;;;1.50;59.46
50268;BME280;36153;50.960;6.220;2023-01-29T04:05:10;101989.13;;;1.72;59.62
50268;BME280;36153;50.960;6.220;2023-01-29T04:08:25;101984.00;;;1.72;58.96
50268;BME280;36153;50.960;6.220;2023-01-29T04:11:28;101984.88;;;1.72;59.24
50268;BME280;36153;50.960;6.220;2023-01-29T04:14:30;101979.31;;;1.66;59.38
50268;BME280;36153;50.960;6.220;2023-01-29T04:17:36;101979.53;;;1.69;59.41
50268;BME280;36153;50.960;6.220;2023-01-29T04:20:38;101967.69;;;1.71;59.12
50268;BME280;36153;50.960;6.220;2023-01-29T04:23:39;101958.75;;;1.78;59.47
50268;BME280;36153;50.960;6.220;2023-01-29T04:26:57;101948.63;;;1.67;59.60
50268;BME280;36153;50.960;6.220;2023-01-29T04:33:37;101951.59;;;1.74;59.48
50268;BME280;36153;50.960;6.220;2023-01-29T04:36:58;101946.69;;;1.77;59.82
50268;BME280;36153;50.960;6.220;2023-01-29T04:40:09;101933.63;;;1.85;59.40
50268;BME280;36153;50.960;6.220;2023-01-29T04:50:30;101928.84;;;1.78;59.51
50268;BME280;36153;50.960;6.220;2023-01-29T04:53:49;101927.56;;;1.85;59.59
50268;BME280;36153;50.960;6.220;2023-01-29T04:56:57;101933.47;;;1.96;59.69
50268;BME280;36153;50.960;6.220;2023-01-29T05:00:10;101932.91;;;2.00;59.34
50268;BME280;36153;50.960;6.220;2023-01-29T05:03:14;101928.78;;;1.90;58.88
50268;BME280;36153;50.960;6.220;2023-01-29T05:06:16;101931.06;;;1.85;59.25
50268;BME280;36153;50.960;6.220;2023-01-29T05:09:18;101924.78;;;1.94;59.00
50268;BME280;36153;50.960;6.220;2023-01-29T05:12:20;101922.09;;;1.92;59.14
50268;BME280;36153;50.960;6.220;2023-01-29T05:15:34;101915.59;;;1.97;58.94
50268;BME280;36153;50.960;6.220;2023-01-29T05:18:36;101911.97;;;2.07;58.84
50268;BME280;36153;50.960;6.220;2023-01-29T05:21:38;101914.28;;;1.91;59.05
50268;BME280;36153;50.960;6.220;2023-01-29T05:24:39;101919.78;;;1.83;59.57
50268;BME280;36153;50.960;6.220;2023-01-29T05:27:39;101921.63;;;1.98;59.43
50268;BME280;36153;50.960;6.220;2023-01-29T05:30:58;101921.38;;;2.07;59.44
50268;BME280;36153;50.960;6.220;2023-01-29T05:33:58;101912.56;;;2.03;58.98
50268;BME280;36153;50.960;6.220;2023-01-29T05:36:59;101906.44;;;2.01;59.47
50268;BME280;36153;50.960;6.220;2023-01-29T05:39:59;101907.22;;;2.00;59.21
50268;BME280;36153;50.960;6.220;2023-01-29T05:42:59;101913.56;;;2.05;59.14
50268;BME280;36153;50.960;6.220;2023-01-29T05:46:00;101927.38;;;2.07;58.84
50268;BME280;36153;50.960;6.220;2023-01-29T05:49:00;101919.69;;;2.07;59.15
50268;BME280;36153;50.960;6.220;2023-01-29T05:52:01;101916.34;;;2.08;58.96
50268;BME280;36153;50.960;6.220;2023-01-29T05:55:01;101913.03;;;2.22;59.06
50268;BME280;36153;50.960;6.220;2023-01-29T05:58:01;101913.25;;;2.26;59.04
50268;BME280;36153;50.960;6.220;2023-01-29T06:01:14;101902.75;;;2.22;58.89
50268;BME280;36153;50.960;6.220;2023-01-29T06:04:15;101897.56;;;2.34;58.57
50268;BME280;36153;50.960;6.220;2023-01-29T06:07:15;101904.06;;;2.29;58.37
50268;BME280;36153;50.960;6.220;2023-01-29T06:10:16;101899.00;;;2.31;58.49
50268;BME280;36153;50.960;6.220;2023-01-29T06:13:17;101900.22;;;2.36;58.40
50268;BME280;36153;50.960;6.220;2023-01-29T06:16:17;101902.88;;;2.24;58.51
50268;BME280;36153;50.960;6.220;2023-01-29T06:19:17;101916.22;;;2.32;58.51
50268;BME280;36153;50.960;6.220;2023-01-29T06:22:19;101919.00;;;2.35;58.48
50268;BME280;36153;50.960;6.220;2023-01-29T06:25:20;101923.25;;;2.34;58.44
50268;BME280;36153;50.960;6.220;2023-01-29T06:28:20;101939.75;;;2.38;58.69
50268;BME280;36153;50.960;6.220;2023-01-29T06:31:20;101943.22;;;2.64;58.56
50268;BME280;36153;50.960;6.220;2023-01-29T06:34:21;101947.56;;;2.78;58.19
50268;BME280;36153;50.960;6.220;2023-01-29T06:37:21;101948.69;;;2.82;57.87
50268;BME280;36153;50.960;6.220;2023-01-29T06:40:22;101955.00;;;2.73;57.73
50268;BME280;36153;50.960;6.220;2023-01-29T06:43:22;101961.06;;;2.49;58.06
50268;BME280;36153;50.960;6.220;2023-01-29T06:46:23;101976.72;;;2.65;57.89
50268;BME280;36153;50.960;6.220;2023-01-29T06:49:23;101979.47;;;2.55;58.54
50268;BME280;36153;50.960;6.220;2023-01-29T06:52:24;101971.78;;;2.55;58.16
50268;BME280;36153;50.960;6.220;2023-01-29T06:55:28;101973.56;;;2.69;58.50
50268;BME280;36153;50.960;6.220;2023-01-29T06:58:28;101977.41;;;2.63;58.18
50268;BME280;36153;50.960;6.220;2023-01-29T07:01:28;101972.69;;;2.69;58.32
50268;BME280;36153;50.960;6.220;2023-01-29T07:04:29;101965.47;;;2.77;58.18
50268;BME280;36153;50.960;6.220;2023-01-29T07:07:29;101951.44;;;2.71;57.88
50268;BME280;36153;50.960;6.220;2023-01-29T07:10:30;101951.03;;;2.65;58.18
50268;BME280;36153;50.960;6.220;2023-01-29T07:13:30;101945.72;;;2.76;57.89
50268;BME280;36153;50.960;6.220;2023-01-29T07:16:31;101928.41;;;2.73;57.99
50268;BME280;36153;50.960;6.220;2023-01-29T07:19:31;101921.41;;;2.45;57.84
50268;BME280;36153;50.960;6.220;2023-01-29T07:22:32;101927.75;;;2.50;58.07
50268;BME280;36153;50.960;6.220;2023-01-29T07:25:33;101928.69;;;2.39;58.45
50268;BME280;36153;50.960;6.220;2023-01-29T07:28:38;101931.03;;;2.48;58.34
50268;BME280;36153;50.960;6.220;2023-01-29T07:31:38;101943.00;;;2.61;58.49
50268;BME280;36153;50.960;6.220;2023-01-29T07:34:39;101936.31;;;2.76;58.62
50268;BME280;36153;50.960;6.220;2023-01-29T07:37:39;101929.50;;;2.90;57.35
50268;BME280;36153;50.960;6.220;2023-01-29T07:40:39;101921.50;;;2.99;57.57
50268;BME280;36153;50.960;6.220;2023-01-29T07:43:40;101927.81;;;2.90;57.33
50268;BME280;36153;50.960;6.220;2023-01-29T07:46:40;101936.72;;;2.96;56.96
50268;BME280;36153;50.960;6.220;2023-01-29T07:49:41;101950.78;;;3.01;57.15
50268;BME280;36153;50.960;6.220;2023-01-29T07:52:41;101937.22;;;3.17;57.23
50268;BME280;36153;50.960;6.220;2023-01-29T07:55:44;101938.72;;;3.27;57.31
50268;BME280;36153;50.960;6.220;2023-01-29T07:58:45;101937.34;;;3.05;56.99
50268;BME280;36153;50.960;6.220;2023-01-29T08:01:45;101934.53;;;3.02;57.17
50268;BME280;36153;50.960;6.220;2023-01-29T08:04:45;101928.22;;;3.23;57.08
50268;BME280;36153;50.960;6.220;2023-01-29T08:07:51;101918.72;;;3.22;57.38
50268;BME280;36153;50.960;6.220;2023-01-29T08:10:53;101916.56;;;3.15;57.30
50268;BME280;36153;50.960;6.220;2023-01-29T08:13:53;101921.97;;;3.20;57.18
50268;BME280;36153;50.960;6.220;2023-01-29T08:16:54;101930.22;;;3.28;57.06
50268;BME280;36153;50.960;6.220;2023-01-29T08:19:54;101919.22;;;3.30;57.09
50268;BME280;36153;50.960;6.220;2023-01-29T08:22:59;101912.78;;;3.23;57.37
50268;BME280;36153;50.960;6.220;2023-01-29T08:26:09;101918.72;;;3.36;57.26
50268;BME280;36153;50.960;6.220;2023-01-29T08:29:22;101934.72;;;3.45;56.78
50268;BME280;36153;50.960;6.220;2023-01-29T08:32:22;101931.63;;;3.64;56.21
50268;BME280;36153;50.960;6.220;2023-01-29T08:35:23;101944.50;;;3.64;56.62
50268;BME280;36153;50.960;6.220;2023-01-29T08:38:23;101935.78;;;3.75;56.54
50268;BME280;36153;50.960;6.220;2023-01-29T08:41:24;101943.56;;;3.90;55.84
50268;BME280;36153;50.960;6.220;2023-01-29T08:44:24;101942.09;;;3.94;56.16
50268;BME280;36153;50.960;6.220;2023-01-29T08:47:24;101941.94;;;4.06;55.90
50268;BME280;36153;50.960;6.220;2023-01-29T08:50:25;101940.19;;;4.20;55.71
50268;BME280;36153;50.960;6.220;2023-01-29T08:53:25;101939.25;;;4.04;55.63
50268;BME280;36153;50.960;6.220;2023-01-29T08:56:26;101936.59;;;4.03;55.58
50268;BME280;36153;50.960;6.220;2023-01-29T08:59:26;101930.41;;;4.14;56.05
50268;BME280;36153;50.960;6.220;2023-01-29T09:02:26;101928.41;;;4.38;55.92
50268;BME280;36153;50.960;6.220;2023-01-29T09:05:27;101912.50;;;4.31;55.06
50268;BME280;36153;50.960;6.220;2023-01-29T09:08:28;101923.66;;;4.16;55.76
50268;BME280;36153;50.960;6.220;2023-01-29T09:11:28;101911.41;;;4.27;55.96
50268;BME280;36153;50.960;6.220;2023-01-29T09:14:28;101899.13;;;4.08;55.51
50268;BME280;36153;50.960;6.220;2023-01-29T09:17:29;101908.00;;;4.13;56.03
50268;BME280;36153;50.960;6.220;2023-01-29T09:20:29;101904.75;;;4.31;56.09
50268;BME280;36153;50.960;6.220;2023-01-29T09:23:30;101911.16;;;4.52;55.76
50268;BME280;36153;50.960;6.220;2023-01-29T09:26:30;101909.41;;;4.51;55.51
50268;BME280;36153;50.960;6.220;2023-01-29T09:29:30;101906.56;;;4.61;55.07
50268;BME280;36153;50.960;6.220;2023-01-29T09:32:33;101912.88;;;4.67;55.16
50268;BME280;36153;50.960;6.220;2023-01-29T09:35:33;101892.34;;;4.68;55.18
50268;BME280;36153;50.960;6.220;2023-01-29T09:38:34;101894.81;;;4.67;55.00
50268;BME280;36153;50.960;6.220;2023-01-29T09:45:12;101880.84;;;4.78;54.37
50268;BME280;36153;50.960;6.220;2023-01-29T09:48:14;101877.47;;;4.79;54.84
50268;BME280;36153;50.960;6.220;2023-01-29T09:51:24;101879.13;;;4.93;55.10
50268;BME280;36153;50.960;6.220;2023-01-29T09:54:46;101877.72;;;4.84;55.05
50268;BME280;36153;50.960;6.220;2023-01-29T09:57:57;101869.59;;;5.07;54.96
50268;BME280;36153;50.960;6.220;2023-01-29T10:22:19;101839.44;;;5.54;53.67
50268;BME280;36153;50.960;6.220;2023-01-29T10:25:09;101835.72;;;5.66;53.70
50268;BME280;36153;50.960;6.220;2023-01-29T10:31:29;101835.97;;;5.70;53.13
50268;BME280;36153;50.960;6.220;2023-01-29T10:34:44;101830.56;;;5.66;53.42
50268;BME280;36153;50.960;6.220;2023-01-29T10:37:46;101833.72;;;5.76;53.57
50268;BME280;36153;50.960;6.220;2023-01-29T10:41:05;101836.47;;;5.79;52.79
50268;BME280;36153;50.960;6.220;2023-01-29T10:48:22;101838.91;;;6.27;52.75
50268;BME280;36153;50.960;6.220;2023-01-29T10:51:09;101824.84;;;6.04;52.20
50268;BME280;36153;50.960;6.220;2023-01-29T10:54:32;101829.44;;;5.77;52.71
50268;BME280;36153;50.960;6.220;2023-01-29T11:00:50;101812.50;;;5.98;52.81
50268;BME280;36153;50.960;6.220;2023-01-29T11:04:01;101816.44;;;6.08;52.20
50268;BME280;36153;50.960;6.220;2023-01-29T11:07:03;101813.75;;;6.07;52.40
50268;BME280;36153;50.960;6.220;2023-01-29T11:10:09;101812.16;;;6.09;52.31
50268;BME280;36153;50.960;6.220;2023-01-29T11:13:14;101810.50;;;6.11;51.94
50268;BME280;36153;50.960;6.220;2023-01-29T11:16:15;101797.56;;;6.45;52.40
50268;BME280;36153;50.960;6.220;2023-01-29T11:19:16;101788.25;;;6.31;51.48
50268;BME280;36153;50.960;6.220;2023-01-29T11:22:24;101799.78;;;6.38;51.76
50268;BME280;36153;50.960;6.220;2023-01-29T11:25:25;101795.06;;;6.47;50.91
50268;BME280;36153;50.960;6.220;2023-01-29T11:28:37;101796.22;;;6.36;51.22
50268;BME280;36153;50.960;6.220;2023-01-29T11:31:38;101791.44;;;6.43;51.38
50268;BME280;36153;50.960;6.220;2023-01-29T11:38:28;101770.09;;;6.65;50.91
50268;BME280;36153;50.960;6.220;2023-01-29T11:41:28;101774.28;;;6.63;50.72
50268;BME280;36153;50.960;6.220;2023-01-29T11:47:38;101759.59;;;6.44;50.88
50268;BME280;36153;50.960;6.220;2023-01-29T11:50:39;101753.38;;;6.41;51.30
50268;BME280;36153;50.960;6.220;2023-01-29T11:53:44;101752.50;;;6.40;51.46
50268;BME280;36153;50.960;6.220;2023-01-29T11:56:48;101746.56;;;6.43;51.46
50268;BME280;36153;50.960;6.220;2023-01-29T11:59:51;101750.13;;;6.45;51.63
50268;BME280;36153;50.960;6.220;2023-01-29T12:02:55;101741.72;;;6.31;52.08
50268;BME280;36153;50.960;6.220;2023-01-29T12:06:05;101729.72;;;6.33;51.79
50268;BME280;36153;50.960;6.220;2023-01-29T12:09:10;101711.63;;;6.33;51.46
50268;BME280;36153;50.960;6.220;2023-01-29T12:12:37;101713.63;;;6.39;51.71
50268;BME280;36153;50.960;6.220;2023-01-29T12:15:40;101706.00;;;6.60;51.81
50268;BME280;36153;50.960;6.220;2023-01-29T12:18:45;101690.84;;;6.87;51.35
50268;BME280;36153;50.960;6.220;2023-01-29T12:22:00;101684.97;;;6.72;51.22
50268;BME280;36153;50.960;6.220;2023-01-29T12:25:07;101670.44;;;6.93;50.75
50268;BME280;36153;50.960;6.220;2023-01-29T12:28:27;101657.63;;;6.96;50.33
50268;BME280;36153;50.960;6.220;2023-01-29T12:31:46;101647.91;;;6.91;50.51
50268;BME280;36153;50.960;6.220;2023-01-29T12:35:00;101642.16;;;6.78;50.65
50268;BME280;36153;50.960;6.220;2023-01-29T12:41:27;101634.88;;;7.09;50.70
50268;BME280;36153;50.960;6.220;2023-01-29T12:44:35;101624.53;;;6.89;51.13
50268;BME280;36153;50.960;6.220;2023-01-29T12:48:00;101618.19;;;7.02;50.34
50268;BME280;36153;50.960;6.220;2023-01-29T12:51:09;101625.06;;;7.02;50.61
50268;BME280;36153;50.960;6.220;2023-01-29T12:54:14;101610.63;;;6.87;50.77
50268;BME280;36153;50.960;6.220;2023-01-29T12:57:23;101603.81;;;6.89;51.08
50268;BME280;36153;50.960;6.220;2023-01-29T13:00:28;101595.91;;;6.66;50.74
50268;BME280;36153;50.960;6.220;2023-01-29T13:03:37;101592.50;;;6.68;51.13
50268;BME280;36153;50.960;6.220;2023-01-29T13:06:48;101590.41;;;6.78;51.07
50268;BME280;36153;50.960;6.220;2023-01-29T13:09:54;101582.69;;;6.80;50.83
50268;BME280;36153;50.960;6.220;2023-01-29T13:13:03;101579.69;;;6.90;51.05
50268;BME280;36153;50.960;6.220;2023-01-29T13:16:09;101581.06;;;7.02;50.72
50268;BME280;36153;50.960;6.220;2023-01-29T13:19:30;101561.31;;;6.84;51.26
50268;BME280;36153;50.960;6.220;2023-01-29T13:22:36;101556.75;;;6.98;50.78
50268;BME280;36153;50.960;6.220;2023-01-29T13:25:37;101554.34;;;7.03;49.89
50268;BME280;36153;50.960;6.220;2023-01-29T13:28:38;101552.19;;;6.92;50.37
50268;BME280;36153;50.960;6.220;2023-01-29T13:31:38;101537.34;;;6.69;51.28
50268;BME280;36153;50.960;6.220;2023-01-29T13:34:45;101533.38;;;6.96;50.63
50268;BME280;36153;50.960;6.220;2023-01-29T13:37:52;101509.81;;;6.90;50.72
50268;BME280;36153;50.960;6.220;2023-01-29T13:40:57;101512.22;;;7.07;50.19
50268;BME280;36153;50.960;6.220;2023-01-29T13:44:00;101534.06;;;6.92;50.11
50268;BME280;36153;50.960;6.220;2023-01-29T13:47:02;101539.94;;;6.88;50.21
50268;BME280;36153;50.960;6.220;2023-01-29T13:50:34;101544.56;;;6.76;50.24
50268;BME280;36153;50.960;6.220;2023-01-29T13:53:39;101545.09;;;6.88;50.79
50268;BME280;36153;50.960;6.220;2023-01-29T13:56:46;101549.06;;;6.80;50.98
50268;BME280;36153;50.960;6.220;2023-01-29T13:59:57;101559.53;;;6.63;51.61
50268;BME280;36153;50.960;6.220;2023-01-29T14:06:03;101551.03;;;6.46;51.67
50268;BME280;36153;50.960;6.220;2023-01-29T14:12:32;101555.38;;;6.28;51.84
50268;BME280;36153;50.960;6.220;2023-01-29T14:15:35;101562.31;;;6.29;52.38
50268;BME280;36153;50.960;6.220;2023-01-29T14:18:45;101566.66;;;6.30;52.44
50268;BME280;36153;50.960;6.220;2023-01-29T14:21:48;101556.66;;;6.18;52.69
50268;BME280;36153;50.960;6.220;2023-01-29T14:24:53;101560.38;;;6.25;52.66
50268;BME280;36153;50.960;6.220;2023-01-29T14:27:56;101565.50;;;6.23;53.10
50268;BME280;36153;50.960;6.220;2023-01-29T14:30:57;101566.56;;;6.46;52.54
50268;BME280;36153;50.960;6.220;2023-01-29T14:34:02;101566.91;;;6.54;52.00
50268;BME280;36153;50.960;6.220;2023-01-29T14:43:18;101554.50;;;6.47;52.27
50268;BME280;36153;50.960;6.220;2023-01-29T14:49:58;101544.31;;;6.50;52.22
50268;BME280;36153;50.960;6.220;2023-01-29T14:56:10;101550.81;;;6.22;52.64
50268;BME280;36153;50.960;6.220;2023-01-29T14:59:20;101549.13;;;6.42;52.45
50268;BME280;36153;50.960;6.220;2023-01-29T15:02:31;101554.13;;;6.57;52.24
50268;BME280;36153;50.960;6.220;2023-01-29T15:05:36;101552.06;;;6.50;51.78
50268;BME280;36153;50.960;6.220;2023-01-29T15:08:43;101554.28;;;6.42;52.01
50268;BME280;36153;50.960;6.220;2023-01-29T15:11:52;101554.44;;;6.45;52.29
50268;BME280;36153;50.960;6.220;2023-01-29T15:15:15;101554.34;;;6.24;52.65
50268;BME280;36153;50.960;6.220;2023-01-29T15:18:37;101554.22;;;6.21;52.92
50268;BME280;36153;50.960;6.220;2023-01-29T15:25:22;101554.75;;;6.14;52.80
50268;BME280;36153;50.960;6.220;2023-01-29T15:28:23;101551.25;;;6.13;53.14
50268;BME280;36153;50.960;6.220;2023-01-29T15:31:24;101546.31;;;6.18;52.99
50268;BME280;36153;50.960;6.220;2023-01-29T15:34:24;101543.88;;;6.21;52.95
50268;BME280;36153;50.960;6.220;2023-01-29T15:37:31;101550.66;;;6.19;53.09
50268;BME280;36153;50.960;6.220;2023-01-29T15:40:33;101537.31;;;6.10;53.59
50268;BME280;36153;50.960;6.220;2023-01-29T15:43:35;101534.44;;;6.04;53.43
50268;BME280;36153;50.960;6.220;2023-01-29T15:46:38;101522.19;;;6.00;53.63
50268;BME280;36153;50.960;6.220;2023-01-29T15:49:40;101523.66;;;5.94;53.85
50268;BME280;36153;50.960;6.220;2023-01-29T15:52:40;101519.16;;;5.90;53.77
50268;BME280;36153;50.960;6.220;2023-01-29T15:55:41;101516.13;;;5.99;53.61
50268;BME280;36153;50.960;6.220;2023-01-29T15:58:45;101514.28;;;5.78;54.13
50268;BME280;36153;50.960;6.220;2023-01-29T16:01:47;101512.06;;;5.86;53.88
50268;BME280;36153;50.960;6.220;2023-01-29T16:04:47;101497.50;;;5.88;53.79
50268;BME280;36153;50.960;6.220;2023-01-29T16:07:49;101506.50;;;5.96;53.73
50268;BME280;36153;50.960;6.220;2023-01-29T16:10:55;101492.00;;;5.98;53.71
50268;BME280;36153;50.960;6.220;2023-01-29T16:13:57;101487.22;;;6.08;53.49
50268;BME280;36153;50.960;6.220;2023-01-29T16:17:18;101489.09;;;5.92;53.48
50268;BME280;36153;50.960;6.220;2023-01-29T16:21:00;101492.56;;;5.93;53.84
50268;BME280;36153;50.960;6.220;2023-01-29T16:24:04;101490.84;;;5.93;53.41
50268;BME280;36153;50.960;6.220;2023-01-29T16:27:12;101487.03;;;5.85;53.61
50268;BME280;36153;50.960;6.220;2023-01-29T16:33:16;101482.75;;;5.68;53.84
50268;BME280;36153;50.960;6.220;2023-01-29T16:36:19;101480.19;;;5.68;54.38
50268;BME280;36153;50.960;6.220;2023-01-29T16:39:24;101469.19;;;5.72;53.76
50268;BME280;36153;50.960;6.220;2023-01-29T16:42:28;101477.50;;;5.84;53.85
50268;BME280;36153;50.960;6.220;2023-01-29T16:45:29;101472.72;;;5.74;53.97
50268;BME280;36153;50.960;6.220;2023-01-29T16:48:32;101473.31;;;5.86;53.73
50268;BME280;36153;50.960;6.220;2023-01-29T16:51:37;101469.88;;;5.87;53.64
50268;BME280;36153;50.960;6.220;2023-01-29T16:54:41;101468.28;;;5.89;53.89
50268;BME280;36153;50.960;6.220;2023-01-29T16:57:43;101462.22;;;5.89;53.69
50268;BME280;36153;50.960;6.220;2023-01-29T17:00:52;101454.13;;;5.81;53.64
50268;BME280;36153;50.960;6.220;2023-01-29T17:04:05;101456.28;;;5.91;53.79
50268;BME280;36153;50.960;6.220;2023-01-29T17:07:15;101449.75;;;5.80;53.93
50268;BME280;36153;50.960;6.220;2023-01-29T17:10:19;101447.47;;;5.86;53.84
50268;BME280;36153;50.960;6.220;2023-01-29T17:13:41;101440.31;;;5.80;54.01
50268;BME280;36153;50.960;6.220;2023-01-29T17:16:49;101438.25;;;5.73;54.29
50268;BME280;36153;50.960;6.220;2023-01-29T17:19:52;101441.34;;;5.66;54.33
50268;BME280;36153;50.960;6.220;2023-01-29T17:22:52;101436.16;;;5.84;53.97
50268;BME280;36153;50.960;6.220;2023-01-29T17:25:52;101437.22;;;5.70;54.15
50268;BME280;36153;50.960;6.220;2023-01-29T17:28:53;101436.97;;;5.83;54.46
50268;BME280;36153;50.960;6.220;2023-01-29T17:31:54;101432.34;;;5.76;54.30
50268;BME280;36153;50.960;6.220;2023-01-29T17:34:55;101433.47;;;5.63;54.66
50268;BME280;36153;50.960;6.220;2023-01-29T17:37:55;101437.81;;;5.82;54.59
50268;BME280;36153;50.960;6.220;2023-01-29T17:40:59;101434.66;;;5.70;54.73
50268;BME280;36153;50.960;6.220;2023-01-29T17:44:01;101426.50;;;5.80;54.76
50268;BME280;36153;50.960;6.220;2023-01-29T17:47:01;101416.63;;;5.71;55.17
50268;BME280;36153;50.960;6.220;2023-01-29T17:50:01;101422.84;;;5.75;54.72
50268;BME280;36153;50.960;6.220;2023-01-29T17:53:02;101406.59;;;5.59;55.22
50268;BME280;36153;50.960;6.220;2023-01-29T17:56:02;101412.06;;;5.66;55.40
50268;BME280;36153;50.960;6.220;2023-01-29T17:59:12;101414.72;;;5.67;55.29